EDDB/SXF METAR and TAF weather

Enter ICAO airport designator
Station Type Date Time Source
EDDB METAR 2019/11/18 08:50 UTC NOAA

EDDB 180850Z 12007KT 9999 BKN039 11/08 Q1005 NOSIG


Station Type Date Time Source
EDDB Decoded METAR 2019/11/18 08:50 UTC NOAA

Berlin-Schoenefeld, Germany (EDDB) 52-23N 013-31E 50M
Nov 18, 2019 - 03:50 AM EST / 2019.11.18 0850 UTC
Wind: from the ESE (120 degrees) at 8 MPH (7 KT):0
Visibility: greater than 7 mile(s):0
Sky conditions: mostly cloudy
Temperature: 51 F (11 C)
Dew Point: 46 F (8 C)
Relative Humidity: 81%
Pressure (altimeter): 29.68 in. Hg (1005 hPa)
ob: EDDB 180850Z 12007KT 9999 BKN039 11/08 Q1005 NOSIG
cycle: 9

Station Type Date Time Source
EDDB TAF 2019/11/18 06:27 UTC NOAA

TAF TAF EDDB 180500Z 1806/1906 11008KT 9999 BKN030
TEMPO 1810/1814 4500 -RA BKN010
BECMG 1811/1813 19009KT

Example: see airport list